Aurora, Illinois
Current Conditions -  °F | °C
As of 9:52 AM on Thursday 23 Oct 2014 (Local Time) from KARR Reporting Station
Haze Haze  
Wind Chill: 45°   Ceiling: Unl
Heat Index: 49°   Visibility: 6mi
Dew Point: 41°   Wind: 8mph
Humidity: 74%   Direction: 170°S
Pressure: 30.21"   Gusts: NA
Location:  41.76°N, 88.31°W
Report Text: KARR 231452Z 17007KT 6SM HZ CLR 09/05 A3021 RMK AO2 SLP235 T00940050 50001
Loading
Personal Weather Stations






























Interactive Weather Map New forecast layout! Learn more

10-Day Weather Forecast

Advertisements
Track Severe Weather on mobile